sensor_id;sensor_type;location;lat;lon;timestamp;pressure;altitude;pressure_sealevel;temperature;humidity
34034;BME280;63481;52.588;22.472;2023-05-11T00:00:22;100893.27;;;7.76;52.20
34034;BME280;63481;52.588;22.472;2023-05-11T00:01:14;100896.16;;;7.76;51.86
34034;BME280;63481;52.588;22.472;2023-05-11T00:01:45;100896.51;;;7.70;52.16
34034;BME280;63481;52.588;22.472;2023-05-11T00:02:18;100893.48;;;7.70;52.64
34034;BME280;63481;52.588;22.472;2023-05-11T00:02:49;100894.96;;;7.69;52.58
34034;BME280;63481;52.588;22.472;2023-05-11T00:03:21;100893.20;;;7.74;52.12
34034;BME280;63481;52.588;22.472;2023-05-11T00:03:53;100893.30;;;7.78;52.04
34034;BME280;63481;52.588;22.472;2023-05-11T00:04:26;100894.15;;;7.78;52.00
34034;BME280;63481;52.588;22.472;2023-05-11T00:04:58;100894.05;;;7.77;51.65
34034;BME280;63481;52.588;22.472;2023-05-11T00:05:30;100895.01;;;7.82;51.58
34034;BME280;63481;52.588;22.472;2023-05-11T00:06:02;100892.55;;;7.83;52.12
34034;BME280;63481;52.588;22.472;2023-05-11T00:06:34;100896.17;;;7.87;51.82
34034;BME280;63481;52.588;22.472;2023-05-11T00:07:06;100893.77;;;7.85;51.18
34034;BME280;63481;52.588;22.472;2023-05-11T00:07:38;100894.16;;;7.84;51.50
34034;BME280;63481;52.588;22.472;2023-05-11T00:08:10;100891.05;;;7.84;51.09
34034;BME280;63481;52.588;22.472;2023-05-11T00:08:41;100890.98;;;7.76;51.50
34034;BME280;63481;52.588;22.472;2023-05-11T00:09:13;100894.16;;;7.76;51.74
34034;BME280;63481;52.588;22.472;2023-05-11T00:09:45;100891.38;;;7.84;51.20
34034;BME280;63481;52.588;22.472;2023-05-11T00:10:17;100888.56;;;7.84;51.13
34034;BME280;63481;52.588;22.472;2023-05-11T00:10:49;100884.94;;;7.83;51.47
34034;BME280;63481;52.588;22.472;2023-05-11T00:11:21;100889.98;;;7.77;51.35
34034;BME280;63481;52.588;22.472;2023-05-11T00:11:54;100892.10;;;7.71;51.50
34034;BME280;63481;52.588;22.472;2023-05-11T00:12:26;100888.55;;;7.68;52.13
34034;BME280;63481;52.588;22.472;2023-05-11T00:12:58;100888.58;;;7.63;51.85
34034;BME280;63481;52.588;22.472;2023-05-11T00:13:30;100888.59;;;7.58;52.29
34034;BME280;63481;52.588;22.472;2023-05-11T00:14:02;100891.91;;;7.59;52.30
34034;BME280;63481;52.588;22.472;2023-05-11T00:14:34;100890.81;;;7.62;52.25
34034;BME280;63481;52.588;22.472;2023-05-11T00:15:06;100889.64;;;7.63;52.08
34034;BME280;63481;52.588;22.472;2023-05-11T00:15:38;100888.67;;;7.66;52.08
34034;BME280;63481;52.588;22.472;2023-05-11T00:16:10;100887.56;;;7.75;51.71
34034;BME280;63481;52.588;22.472;2023-05-11T00:16:42;100887.73;;;7.77;51.34
34034;BME280;63481;52.588;22.472;2023-05-11T00:17:14;100887.34;;;7.74;51.33
34034;BME280;63481;52.588;22.472;2023-05-11T00:17:45;100889.11;;;7.76;51.70
34034;BME280;63481;52.588;22.472;2023-05-11T00:18:17;100888.13;;;7.70;51.77
34034;BME280;63481;52.588;22.472;2023-05-11T00:18:49;100887.08;;;7.64;51.60
34034;BME280;63481;52.588;22.472;2023-05-11T00:19:21;100889.36;;;7.64;51.90
34034;BME280;63481;52.588;22.472;2023-05-11T00:19:53;100891.33;;;7.66;52.13
34034;BME280;63481;52.588;22.472;2023-05-11T00:20:25;100889.58;;;7.62;52.39
34034;BME280;63481;52.588;22.472;2023-05-11T00:20:57;100889.31;;;7.63;51.85
34034;BME280;63481;52.588;22.472;2023-05-11T00:21:29;100894.69;;;7.69;52.19
34034;BME280;63481;52.588;22.472;2023-05-11T00:22:01;100890.80;;;7.69;51.99
34034;BME280;63481;52.588;22.472;2023-05-11T00:22:33;100890.79;;;7.66;52.03
34034;BME280;63481;52.588;22.472;2023-05-11T00:23:04;100889.39;;;7.59;52.19
34034;BME280;63481;52.588;22.472;2023-05-11T00:23:36;100889.60;;;7.53;52.80
34034;BME280;63481;52.588;22.472;2023-05-11T00:24:08;100890.77;;;7.49;52.48
34034;BME280;63481;52.588;22.472;2023-05-11T00:24:40;100887.64;;;7.47;52.39
34034;BME280;63481;52.588;22.472;2023-05-11T00:25:12;100890.40;;;7.42;52.73
34034;BME280;63481;52.588;22.472;2023-05-11T00:25:44;100887.55;;;7.40;52.86
34034;BME280;63481;52.588;22.472;2023-05-11T00:26:16;100886.89;;;7.30;53.34
34034;BME280;63481;52.588;22.472;2023-05-11T00:26:48;100889.20;;;7.24;53.06
34034;BME280;63481;52.588;22.472;2023-05-11T00:27:20;100884.70;;;7.27;53.23
34034;BME280;63481;52.588;22.472;2023-05-11T00:27:52;100885.56;;;7.38;53.16
34034;BME280;63481;52.588;22.472;2023-05-11T00:28:24;100886.53;;;7.39;53.39
34034;BME280;63481;52.588;22.472;2023-05-11T00:28:56;100884.15;;;7.37;53.37
34034;BME280;63481;52.588;22.472;2023-05-11T00:29:28;100882.89;;;7.34;52.98
34034;BME280;63481;52.588;22.472;2023-05-11T00:30:00;100884.45;;;7.33;53.25
34034;BME280;63481;52.588;22.472;2023-05-11T00:30:32;100884.18;;;7.35;53.72
34034;BME280;63481;52.588;22.472;2023-05-11T00:31:04;100883.06;;;7.34;53.29
34034;BME280;63481;52.588;22.472;2023-05-11T00:31:36;100886.45;;;7.34;53.22
34034;BME280;63481;52.588;22.472;2023-05-11T00:32:08;100883.15;;;7.35;53.26
34034;BME280;63481;52.588;22.472;2023-05-11T00:32:41;100884.71;;;7.35;53.22
34034;BME280;63481;52.588;22.472;2023-05-11T00:33:13;100885.89;;;7.40;53.37
34034;BME280;63481;52.588;22.472;2023-05-11T00:33:45;100888.59;;;7.38;53.18
34034;BME280;63481;52.588;22.472;2023-05-11T00:34:17;100887.48;;;7.37;52.89
34034;BME280;63481;52.588;22.472;2023-05-11T00:34:49;100884.82;;;7.33;52.86
34034;BME280;63481;52.588;22.472;2023-05-11T00:35:21;100887.25;;;7.39;52.98
34034;BME280;63481;52.588;22.472;2023-05-11T00:35:53;100883.27;;;7.40;53.35
34034;BME280;63481;52.588;22.472;2023-05-11T00:36:25;100884.65;;;7.34;53.52
34034;BME280;63481;52.588;22.472;2023-05-11T00:36:57;100883.50;;;7.30;53.26
34034;BME280;63481;52.588;22.472;2023-05-11T00:37:29;100885.52;;;7.34;53.18
34034;BME280;63481;52.588;22.472;2023-05-11T00:38:02;100883.77;;;7.37;53.22
34034;BME280;63481;52.588;22.472;2023-05-11T00:38:34;100883.88;;;7.36;53.27
34034;BME280;63481;52.588;22.472;2023-05-11T00:39:08;100882.80;;;7.41;52.95
34034;BME280;63481;52.588;22.472;2023-05-11T00:39:40;100886.77;;;7.36;52.88
34034;BME280;63481;52.588;22.472;2023-05-11T00:40:12;100883.69;;;7.35;52.86
34034;BME280;63481;52.588;22.472;2023-05-11T00:40:44;100883.77;;;7.29;52.89
34034;BME280;63481;52.588;22.472;2023-05-11T00:41:16;100882.19;;;7.23;53.07
34034;BME280;63481;52.588;22.472;2023-05-11T00:41:48;100884.75;;;7.18;53.25
34034;BME280;63481;52.588;22.472;2023-05-11T00:42:20;100882.89;;;7.16;53.39
34034;BME280;63481;52.588;22.472;2023-05-11T00:42:52;100882.02;;;7.07;54.31
34034;BME280;63481;52.588;22.472;2023-05-11T00:43:24;100884.28;;;6.99;54.56
34034;BME280;63481;52.588;22.472;2023-05-11T00:43:56;100886.02;;;6.96;54.36
34034;BME280;63481;52.588;22.472;2023-05-11T00:44:28;100884.95;;;6.96;54.00
34034;BME280;63481;52.588;22.472;2023-05-11T00:45:00;100883.26;;;6.97;54.74
34034;BME280;63481;52.588;22.472;2023-05-11T00:45:33;100882.58;;;6.94;54.44
34034;BME280;63481;52.588;22.472;2023-05-11T00:46:06;100884.63;;;6.90;54.68
34034;BME280;63481;52.588;22.472;2023-05-11T00:46:38;100881.52;;;6.87;54.72
34034;BME280;63481;52.588;22.472;2023-05-11T00:47:10;100878.26;;;6.83;55.34
34034;BME280;63481;52.588;22.472;2023-05-11T00:47:42;100880.19;;;6.82;55.60
34034;BME280;63481;52.588;22.472;2023-05-11T00:48:14;100882.66;;;6.80;56.15
34034;BME280;63481;52.588;22.472;2023-05-11T00:48:47;100880.02;;;6.78;56.36
34034;BME280;63481;52.588;22.472;2023-05-11T00:49:19;100882.17;;;6.80;56.11
34034;BME280;63481;52.588;22.472;2023-05-11T00:49:53;100880.52;;;6.80;55.97
34034;BME280;63481;52.588;22.472;2023-05-11T00:50:26;100882.30;;;6.77;55.82
34034;BME280;63481;52.588;22.472;2023-05-11T00:50:58;100883.20;;;6.80;55.94
34034;BME280;63481;52.588;22.472;2023-05-11T00:51:31;100880.85;;;6.77;55.93
34034;BME280;63481;52.588;22.472;2023-05-11T00:52:04;100881.18;;;6.70;55.87
34034;BME280;63481;52.588;22.472;2023-05-11T00:52:36;100884.30;;;6.64;55.92
34034;BME280;63481;52.588;22.472;2023-05-11T00:53:08;100881.64;;;6.67;56.37
34034;BME280;63481;52.588;22.472;2023-05-11T00:53:42;100882.01;;;6.70;56.23
34034;BME280;63481;52.588;22.472;2023-05-11T00:54:14;100879.52;;;6.77;56.71
34034;BME280;63481;52.588;22.472;2023-05-11T00:54:46;100880.89;;;6.80;56.37
34034;BME280;63481;52.588;22.472;2023-05-11T00:55:19;100878.27;;;6.82;56.16
34034;BME280;63481;52.588;22.472;2023-05-11T00:55:52;100877.60;;;6.84;56.31
34034;BME280;63481;52.588;22.472;2023-05-11T00:56:24;100881.79;;;6.88;55.90
34034;BME280;63481;52.588;22.472;2023-05-11T00:56:56;100880.27;;;6.90;56.11
34034;BME280;63481;52.588;22.472;2023-05-11T00:57:28;100876.70;;;6.83;55.95
34034;BME280;63481;52.588;22.472;2023-05-11T00:58:03;100880.13;;;6.79;55.94
34034;BME280;63481;52.588;22.472;2023-05-11T00:58:38;100880.59;;;6.73;56.21
34034;BME280;63481;52.588;22.472;2023-05-11T00:59:10;100876.11;;;6.74;55.93
34034;BME280;63481;52.588;22.472;2023-05-11T00:59:44;100880.49;;;6.66;55.99
34034;BME280;63481;52.588;22.472;2023-05-11T01:00:16;100877.23;;;6.58;56.55
34034;BME280;63481;52.588;22.472;2023-05-11T01:00:48;100877.40;;;6.54;56.59
34034;BME280;63481;52.588;22.472;2023-05-11T01:01:20;100876.20;;;6.45;56.73
34034;BME280;63481;52.588;22.472;2023-05-11T01:01:53;100879.21;;;6.39;56.86
34034;BME280;63481;52.588;22.472;2023-05-11T01:02:25;100879.02;;;6.35;56.85
34034;BME280;63481;52.588;22.472;2023-05-11T01:02:58;100876.49;;;6.42;57.36
34034;BME280;63481;52.588;22.472;2023-05-11T01:03:32;100877.85;;;6.40;56.97
34034;BME280;63481;52.588;22.472;2023-05-11T01:04:05;100878.03;;;6.32;56.91
34034;BME280;63481;52.588;22.472;2023-05-11T01:04:37;100880.09;;;6.34;57.36
34034;BME280;63481;52.588;22.472;2023-05-11T01:05:09;100879.64;;;6.37;57.34
34034;BME280;63481;52.588;22.472;2023-05-11T01:05:49;100877.42;;;6.37;57.22
34034;BME280;63481;52.588;22.472;2023-05-11T01:06:35;100874.67;;;6.53;57.12
34034;BME280;63481;52.588;22.472;2023-05-11T01:07:20;100879.65;;;6.66;57.13
34034;BME280;63481;52.588;22.472;2023-05-11T01:08:02;100877.61;;;6.72;56.68
34034;BME280;63481;52.588;22.472;2023-05-11T01:08:50;100877.16;;;6.72;56.37
34034;BME280;63481;52.588;22.472;2023-05-11T01:10:02;100878.53;;;6.68;56.72
34034;BME280;63481;52.588;22.472;2023-05-11T01:10:45;100880.19;;;6.61;57.03
34034;BME280;63481;52.588;22.472;2023-05-11T01:11:35;100881.20;;;6.48;57.64
34034;BME280;63481;52.588;22.472;2023-05-11T01:12:26;100877.46;;;6.42;57.51
34034;BME280;63481;52.588;22.472;2023-05-11T01:14:26;100881.64;;;6.29;58.06
34034;BME280;63481;52.588;22.472;2023-05-11T01:15:04;100881.95;;;6.26;57.83
34034;BME280;63481;52.588;22.472;2023-05-11T01:15:51;100879.77;;;6.22;57.97
34034;BME280;63481;52.588;22.472;2023-05-11T01:16:28;100875.99;;;6.21;58.51
34034;BME280;63481;52.588;22.472;2023-05-11T01:17:09;100878.34;;;6.21;58.64
34034;BME280;63481;52.588;22.472;2023-05-11T01:18:01;100882.90;;;6.18;58.38
34034;BME280;63481;52.588;22.472;2023-05-11T01:18:41;100880.65;;;6.06;58.96
34034;BME280;63481;52.588;22.472;2023-05-11T01:19:35;100878.75;;;5.98;59.27
34034;BME280;63481;52.588;22.472;2023-05-11T01:20:14;100881.77;;;5.91;59.58
34034;BME280;63481;52.588;22.472;2023-05-11T01:20:48;100881.04;;;5.88;59.68
34034;BME280;63481;52.588;22.472;2023-05-11T01:21:20;100881.94;;;5.89;59.48
34034;BME280;63481;52.588;22.472;2023-05-11T01:21:52;100880.21;;;5.89;59.72
34034;BME280;63481;52.588;22.472;2023-05-11T01:25:06;100886.83;;;5.86;59.46
34034;BME280;63481;52.588;22.472;2023-05-11T01:26:06;100884.19;;;5.80;59.62
34034;BME280;63481;52.588;22.472;2023-05-11T01:28:09;100887.56;;;5.90;59.88
34034;BME280;63481;52.588;22.472;2023-05-11T01:30:39;100886.03;;;5.88;59.39
34034;BME280;63481;52.588;22.472;2023-05-11T01:31:14;100884.29;;;5.84;59.97
34034;BME280;63481;52.588;22.472;2023-05-11T01:31:48;100885.66;;;5.83;59.80
34034;BME280;63481;52.588;22.472;2023-05-11T01:32:26;100884.56;;;5.83;59.82
34034;BME280;63481;52.588;22.472;2023-05-11T01:33:05;100883.95;;;5.84;59.85
34034;BME280;63481;52.588;22.472;2023-05-11T01:33:50;100884.44;;;5.81;59.65
34034;BME280;63481;52.588;22.472;2023-05-11T01:34:28;100886.42;;;5.78;60.19
34034;BME280;63481;52.588;22.472;2023-05-11T01:35:13;100884.27;;;5.74;60.04
34034;BME280;63481;52.588;22.472;2023-05-11T01:35:52;100883.71;;;5.70;60.63
34034;BME280;63481;52.588;22.472;2023-05-11T01:36:31;100883.43;;;5.62;60.75
34034;BME280;63481;52.588;22.472;2023-05-11T01:37:17;100884.65;;;5.56;60.63
34034;BME280;63481;52.588;22.472;2023-05-11T01:37:54;100882.61;;;5.52;60.94
34034;BME280;63481;52.588;22.472;2023-05-11T01:38:34;100882.40;;;5.50;61.08
34034;BME280;63481;52.588;22.472;2023-05-11T01:39:08;100881.07;;;5.51;61.10
34034;BME280;63481;52.588;22.472;2023-05-11T01:39:49;100880.97;;;5.54;60.74
34034;BME280;63481;52.588;22.472;2023-05-11T01:40:26;100883.55;;;5.48;61.32
34034;BME280;63481;52.588;22.472;2023-05-11T01:41:00;100880.71;;;5.36;61.52
34034;BME280;63481;52.588;22.472;2023-05-11T01:41:36;100881.08;;;5.24;62.39
34034;BME280;63481;52.588;22.472;2023-05-11T01:42:09;100880.54;;;5.22;62.25
34034;BME280;63481;52.588;22.472;2023-05-11T01:42:47;100880.89;;;5.16;62.85
34034;BME280;63481;52.588;22.472;2023-05-11T01:43:22;100883.17;;;5.02;63.47
34034;BME280;63481;52.588;22.472;2023-05-11T01:43:57;100887.77;;;4.97;63.54
34034;BME280;63481;52.588;22.472;2023-05-11T01:44:31;100887.83;;;4.95;63.73
34034;BME280;63481;52.588;22.472;2023-05-11T01:45:06;100885.89;;;5.01;63.00
34034;BME280;63481;52.588;22.472;2023-05-11T01:45:42;100885.70;;;5.02;63.56
34034;BME280;63481;52.588;22.472;2023-05-11T01:46:16;100886.13;;;4.99;63.57
34034;BME280;63481;52.588;22.472;2023-05-11T01:46:49;100887.63;;;4.86;64.15
34034;BME280;63481;52.588;22.472;2023-05-11T01:47:25;100888.04;;;4.71;64.75
34034;BME280;63481;52.588;22.472;2023-05-11T01:48:02;100890.85;;;4.64;65.00
34034;BME280;63481;52.588;22.472;2023-05-11T01:48:38;100893.13;;;4.56;65.13
34034;BME280;63481;52.588;22.472;2023-05-11T01:49:11;100892.11;;;4.47;65.55
34034;BME280;63481;52.588;22.472;2023-05-11T01:49:44;100895.66;;;4.45;65.69
34034;BME280;63481;52.588;22.472;2023-05-11T01:50:18;100892.83;;;4.52;65.08
34034;BME280;63481;52.588;22.472;2023-05-11T01:50:55;100892.37;;;4.53;65.45
34034;BME280;63481;52.588;22.472;2023-05-11T01:51:32;100891.44;;;4.48;65.80
34034;BME280;63481;52.588;22.472;2023-05-11T01:52:06;100896.94;;;4.37;66.20
34034;BME280;63481;52.588;22.472;2023-05-11T01:52:39;100894.48;;;4.42;65.97
34034;BME280;63481;52.588;22.472;2023-05-11T01:53:14;100893.77;;;4.44;65.88
34034;BME280;63481;52.588;22.472;2023-05-11T01:53:49;100898.91;;;4.37;66.17
34034;BME280;63481;52.588;22.472;2023-05-11T01:54:23;100897.86;;;4.28;66.59
34034;BME280;63481;52.588;22.472;2023-05-11T01:54:58;100899.55;;;4.20;66.97
34034;BME280;63481;52.588;22.472;2023-05-11T01:55:34;100897.48;;;4.13;66.98
34034;BME280;63481;52.588;22.472;2023-05-11T01:56:08;100897.57;;;4.08;67.51
34034;BME280;63481;52.588;22.472;2023-05-11T01:56:43;100893.15;;;4.11;66.73
34034;BME280;63481;52.588;22.472;2023-05-11T01:57:16;100892.35;;;4.14;67.10
34034;BME280;63481;52.588;22.472;2023-05-11T01:57:52;100896.16;;;4.15;67.33
34034;BME280;63481;52.588;22.472;2023-05-11T01:58:24;100899.59;;;4.14;67.11
34034;BME280;63481;52.588;22.472;2023-05-11T01:58:58;100898.51;;;4.25;66.60
34034;BME280;63481;52.588;22.472;2023-05-11T01:59:31;100893.64;;;4.26;66.93
34034;BME280;63481;52.588;22.472;2023-05-11T02:00:04;100893.40;;;4.28;66.44
34034;BME280;63481;52.588;22.472;2023-05-11T02:00:44;100896.36;;;4.32;66.29
34034;BME280;63481;52.588;22.472;2023-05-11T02:01:17;100896.27;;;4.39;66.07
34034;BME280;63481;52.588;22.472;2023-05-11T02:01:50;100895.27;;;4.38;66.01
34034;BME280;63481;52.588;22.472;2023-05-11T02:02:23;100897.58;;;4.34;66.39
34034;BME280;63481;52.588;22.472;2023-05-11T02:02:58;100892.84;;;4.26;66.56
34034;BME280;63481;52.588;22.472;2023-05-11T02:03:34;100896.38;;;4.23;66.65
34034;BME280;63481;52.588;22.472;2023-05-11T02:04:08;100897.23;;;4.27;66.53
34034;BME280;63481;52.588;22.472;2023-05-11T02:04:40;100898.93;;;4.22;66.57
34034;BME280;63481;52.588;22.472;2023-05-11T02:05:20;100899.58;;;4.19;66.91
34034;BME280;63481;52.588;22.472;2023-05-11T02:05:53;100899.77;;;4.23;66.62
34034;BME280;63481;52.588;22.472;2023-05-11T02:06:25;100902.02;;;4.18;66.78
34034;BME280;63481;52.588;22.472;2023-05-11T02:07:00;100900.27;;;4.17;66.75
34034;BME280;63481;52.588;22.472;2023-05-11T02:07:34;100900.48;;;4.21;66.83
34034;BME280;63481;52.588;22.472;2023-05-11T02:08:07;100897.45;;;4.19;66.83
34034;BME280;63481;52.588;22.472;2023-05-11T02:08:40;100897.61;;;4.18;66.91
34034;BME280;63481;52.588;22.472;2023-05-11T02:09:15;100897.45;;;4.12;67.34
34034;BME280;63481;52.588;22.472;2023-05-11T02:09:48;100898.22;;;4.10;66.77
34034;BME280;63481;52.588;22.472;2023-05-11T02:10:24;100895.45;;;4.11;67.04
34034;BME280;63481;52.588;22.472;2023-05-11T02:10:57;100897.64;;;4.18;67.01
34034;BME280;63481;52.588;22.472;2023-05-11T02:11:30;100897.38;;;4.18;67.01
34034;BME280;63481;52.588;22.472;2023-05-11T02:12:03;100897.85;;;4.17;66.85
34034;BME280;63481;52.588;22.472;2023-05-11T02:12:37;100902.02;;;4.14;67.23
34034;BME280;63481;52.588;22.472;2023-05-11T02:13:10;100898.16;;;4.21;66.59
34034;BME280;63481;52.588;22.472;2023-05-11T02:13:44;100901.32;;;4.28;66.59
34034;BME280;63481;52.588;22.472;2023-05-11T02:14:18;100900.81;;;4.28;66.33
34034;BME280;63481;52.588;22.472;2023-05-11T02:14:52;100900.80;;;4.34;66.80
34034;BME280;63481;52.588;22.472;2023-05-11T02:15:25;100901.54;;;4.37;66.17
34034;BME280;63481;52.588;22.472;2023-05-11T02:15:59;100901.77;;;4.31;66.20
34034;BME280;63481;52.588;22.472;2023-05-11T02:16:32;100900.91;;;4.24;66.28
34034;BME280;63481;52.588;22.472;2023-05-11T02:17:07;100902.60;;;4.22;66.61
34034;BME280;63481;52.588;22.472;2023-05-11T02:17:39;100900.28;;;4.21;66.78
34034;BME280;63481;52.588;22.472;2023-05-11T02:18:13;100901.85;;;4.17;67.26
34034;BME280;63481;52.588;22.472;2023-05-11T02:18:46;100901.91;;;4.10;67.18
34034;BME280;63481;52.588;22.472;2023-05-11T02:19:20;100905.77;;;4.03;67.61
34034;BME280;63481;52.588;22.472;2023-05-11T02:19:52;100905.33;;;3.95;67.55
34034;BME280;63481;52.588;22.472;2023-05-11T02:20:25;100909.50;;;3.99;67.62
34034;BME280;63481;52.588;22.472;2023-05-11T02:20:58;100908.71;;;4.14;67.10
34034;BME280;63481;52.588;22.472;2023-05-11T02:21:31;100907.14;;;4.34;66.61
34034;BME280;63481;52.588;22.472;2023-05-11T02:22:05;100906.98;;;4.49;65.89
34034;BME280;63481;52.588;22.472;2023-05-11T02:22:37;100902.98;;;4.59;65.29
34034;BME280;63481;52.588;22.472;2023-05-11T02:23:10;100907.81;;;4.67;65.09
34034;BME280;63481;52.588;22.472;2023-05-11T02:23:44;100904.05;;;4.71;65.14
34034;BME280;63481;52.588;22.472;2023-05-11T02:24:20;100903.29;;;4.70;65.01
34034;BME280;63481;52.588;22.472;2023-05-11T02:24:52;100907.04;;;4.72;65.10
34034;BME280;63481;52.588;22.472;2023-05-11T02:25:24;100903.05;;;4.71;65.00
34034;BME280;63481;52.588;22.472;2023-05-11T02:25:57;100907.09;;;4.71;64.73
34034;BME280;63481;52.588;22.472;2023-05-11T02:26:29;100908.81;;;4.73;64.81
34034;BME280;63481;52.588;22.472;2023-05-11T02:27:01;100906.00;;;4.77;64.47
34034;BME280;63481;52.588;22.472;2023-05-11T02:27:34;100907.13;;;4.78;64.43
34034;BME280;63481;52.588;22.472;2023-05-11T02:28:09;100910.71;;;4.73;64.48
34034;BME280;63481;52.588;22.472;2023-05-11T02:28:41;100908.20;;;4.67;64.61
34034;BME280;63481;52.588;22.472;2023-05-11T02:29:14;100909.58;;;4.64;64.72
34034;BME280;63481;52.588;22.472;2023-05-11T02:29:46;100912.04;;;4.62;64.93
34034;BME280;63481;52.588;22.472;2023-05-11T02:30:19;100910.85;;;4.56;65.23
34034;BME280;63481;52.588;22.472;2023-05-11T02:30:53;100912.42;;;4.55;65.21
34034;BME280;63481;52.588;22.472;2023-05-11T02:31:29;100914.70;;;4.55;65.27
34034;BME280;63481;52.588;22.472;2023-05-11T02:32:07;100911.08;;;4.56;65.07
34034;BME280;63481;52.588;22.472;2023-05-11T02:32:46;100913.74;;;4.59;64.97
34034;BME280;63481;52.588;22.472;2023-05-11T02:33:20;100912.97;;;4.56;64.78
34034;BME280;63481;52.588;22.472;2023-05-11T02:34:00;100912.59;;;4.53;64.55
34034;BME280;63481;52.588;22.472;2023-05-11T02:34:39;100910.80;;;4.53;64.66
34034;BME280;63481;52.588;22.472;2023-05-11T02:35:17;100914.67;;;4.55;63.89
34034;BME280;63481;52.588;22.472;2023-05-11T02:35:54;100912.62;;;4.58;63.96
34034;BME280;63481;52.588;22.472;2023-05-11T02:36:28;100911.33;;;4.64;63.97
34034;BME280;63481;52.588;22.472;2023-05-11T02:37:06;100911.84;;;4.67;63.61
34034;BME280;63481;52.588;22.472;2023-05-11T02:37:44;100912.89;;;4.71;63.69
34034;BME280;63481;52.588;22.472;2023-05-11T02:38:17;100910.58;;;4.82;63.03
34034;BME280;63481;52.588;22.472;2023-05-11T02:38:55;100913.77;;;4.97;62.55
34034;BME280;63481;52.588;22.472;2023-05-11T02:39:31;100914.35;;;5.09;61.86
34034;BME280;63481;52.588;22.472;2023-05-11T02:40:09;100905.77;;;5.29;61.47
34034;BME280;63481;52.588;22.472;2023-05-11T02:40:49;100911.02;;;5.46;61.09
34034;BME280;63481;52.588;22.472;2023-05-11T02:41:25;100907.27;;;5.54;60.71
34034;BME280;63481;52.588;22.472;2023-05-11T02:42:05;100908.98;;;5.63;60.07
34034;BME280;63481;52.588;22.472;2023-05-11T02:42:42;100911.75;;;5.65;59.79
34034;BME280;63481;52.588;22.472;2023-05-11T02:43:21;100910.84;;;5.62;59.82
34034;BME280;63481;52.588;22.472;2023-05-11T02:44:02;100910.17;;;5.63;59.88
34034;BME280;63481;52.588;22.472;2023-05-11T02:44:36;100910.55;;;5.65;59.73
34034;BME280;63481;52.588;22.472;2023-05-11T02:45:11;100910.14;;;5.68;59.78
34034;BME280;63481;52.588;22.472;2023-05-11T02:45:45;100914.48;;;5.71;59.73
34034;BME280;63481;52.588;22.472;2023-05-11T02:46:23;100912.67;;;5.71;59.72
34034;BME280;63481;52.588;22.472;2023-05-11T02:46:59;100915.73;;;5.66;59.73
34034;BME280;63481;52.588;22.472;2023-05-11T02:47:38;100912.49;;;5.63;59.83
34034;BME280;63481;52.588;22.472;2023-05-11T02:48:20;100917.82;;;5.63;59.78
34034;BME280;63481;52.588;22.472;2023-05-11T02:48:55;100916.75;;;5.66;59.82
34034;BME280;63481;52.588;22.472;2023-05-11T02:49:30;100917.38;;;5.67;59.79
34034;BME280;63481;52.588;22.472;2023-05-11T02:50:03;100918.36;;;5.66;59.63
34034;BME280;63481;52.588;22.472;2023-05-11T02:50:39;100916.29;;;5.60;59.98
34034;BME280;63481;52.588;22.472;2023-05-11T02:51:14;100918.73;;;5.60;59.76
34034;BME280;63481;52.588;22.472;2023-05-11T02:51:53;100918.39;;;5.57;60.48
34034;BME280;63481;52.588;22.472;2023-05-11T02:52:26;100920.80;;;5.58;60.08
34034;BME280;63481;52.588;22.472;2023-05-11T02:53:03;100916.77;;;5.57;60.07
34034;BME280;63481;52.588;22.472;2023-05-11T02:53:39;100915.77;;;5.50;60.23
34034;BME280;63481;52.588;22.472;2023-05-11T02:54:13;100919.84;;;5.45;60.43
34034;BME280;63481;52.588;22.472;2023-05-11T02:54:51;100919.59;;;5.42;60.64
34034;BME280;63481;52.588;22.472;2023-05-11T02:55:24;100915.05;;;5.41;60.64
34034;BME280;63481;52.588;22.472;2023-05-11T02:55:57;100918.13;;;5.50;61.07
34034;BME280;63481;52.588;22.472;2023-05-11T02:56:30;100918.54;;;5.52;60.63
34034;BME280;63481;52.588;22.472;2023-05-11T02:57:02;100917.04;;;5.48;60.44
34034;BME280;63481;52.588;22.472;2023-05-11T02:57:35;100920.92;;;5.44;60.60
34034;BME280;63481;52.588;22.472;2023-05-11T02:58:11;100914.73;;;5.43;60.82
34034;BME280;63481;52.588;22.472;2023-05-11T02:58:44;100915.05;;;5.38;60.75
34034;BME280;63481;52.588;22.472;2023-05-11T02:59:35;100915.09;;;5.34;61.12
34034;BME280;63481;52.588;22.472;2023-05-11T03:00:07;100915.79;;;5.31;61.25
34034;BME280;63481;52.588;22.472;2023-05-11T03:00:40;100918.95;;;5.29;61.34
34034;BME280;63481;52.588;22.472;2023-05-11T03:01:13;100916.23;;;5.33;61.15
34034;BME280;63481;52.588;22.472;2023-05-11T03:01:45;100917.13;;;5.33;61.03
34034;BME280;63481;52.588;22.472;2023-05-11T03:02:18;100914.88;;;5.34;61.14
34034;BME280;63481;52.588;22.472;2023-05-11T03:02:50;100920.37;;;5.38;61.02
34034;BME280;63481;52.588;22.472;2023-05-11T03:03:25;100919.90;;;5.37;60.79
34034;BME280;63481;52.588;22.472;2023-05-11T03:03:57;100918.70;;;5.35;61.12
34034;BME280;63481;52.588;22.472;2023-05-11T03:04:30;100916.27;;;5.35;61.23
34034;BME280;63481;52.588;22.472;2023-05-11T03:05:02;100913.79;;;5.33;61.21
34034;BME280;63481;52.588;22.472;2023-05-11T03:05:35;100913.74;;;5.32;61.21
34034;BME280;63481;52.588;22.472;2023-05-11T03:06:07;100916.63;;;5.38;61.10
34034;BME280;63481;52.588;22.472;2023-05-11T03:06:39;100913.66;;;5.39;61.06
34034;BME280;63481;52.588;22.472;2023-05-11T03:07:12;100913.61;;;5.40;61.06
34034;BME280;63481;52.588;22.472;2023-05-11T03:07:43;100913.77;;;5.40;60.92
34034;BME280;63481;52.588;22.472;2023-05-11T03:08:16;100916.03;;;5.39;61.28
34034;BME280;63481;52.588;22.472;2023-05-11T03:08:48;100915.75;;;5.40;61.10